sensor_id;sensor_type;location;lat;lon;timestamp;P1;durP1;ratioP1;P2;durP2;ratioP2
54937;SDS011;52756;52.826;6.214;2024-02-15T00:00:03;30.05;;;17.77;;
54937;SDS011;52756;52.826;6.214;2024-02-15T00:02:33;32.28;;;19.02;;
54937;SDS011;52756;52.826;6.214;2024-02-15T00:04:58;34.42;;;19.40;;
54937;SDS011;52756;52.826;6.214;2024-02-15T00:07:24;34.45;;;18.70;;
54937;SDS011;52756;52.826;6.214;2024-02-15T00:09:49;34.78;;;19.08;;
54937;SDS011;52756;52.826;6.214;2024-02-15T00:12:15;32.13;;;19.00;;
54937;SDS011;52756;52.826;6.214;2024-02-15T00:14:41;29.02;;;16.65;;
54937;SDS011;52756;52.826;6.214;2024-02-15T00:17:07;29.15;;;16.00;;
54937;SDS011;52756;52.826;6.214;2024-02-15T00:19:33;31.58;;;15.80;;
54937;SDS011;52756;52.826;6.214;2024-02-15T00:21:58;31.83;;;16.15;;
54937;SDS011;52756;52.826;6.214;2024-02-15T00:24:24;34.20;;;17.02;;
54937;SDS011;52756;52.826;6.214;2024-02-15T00:26:50;27.45;;;15.50;;
54937;SDS011;52756;52.826;6.214;2024-02-15T00:29:16;27.02;;;14.63;;
54937;SDS011;52756;52.826;6.214;2024-02-15T00:31:41;30.65;;;14.95;;
54937;SDS011;52756;52.826;6.214;2024-02-15T00:34:07;25.42;;;13.52;;
54937;SDS011;52756;52.826;6.214;2024-02-15T00:36:33;21.88;;;13.27;;
54937;SDS011;52756;52.826;6.214;2024-02-15T00:38:59;27.38;;;14.07;;
54937;SDS011;52756;52.826;6.214;2024-02-15T00:41:24;29.10;;;13.75;;
54937;SDS011;52756;52.826;6.214;2024-02-15T00:43:50;26.33;;;12.88;;
54937;SDS011;52756;52.826;6.214;2024-02-15T00:46:16;23.83;;;12.07;;
54937;SDS011;52756;52.826;6.214;2024-02-15T00:48:41;22.05;;;11.93;;
54937;SDS011;52756;52.826;6.214;2024-02-15T00:51:07;21.40;;;11.63;;
54937;SDS011;52756;52.826;6.214;2024-02-15T00:53:33;22.10;;;11.45;;
54937;SDS011;52756;52.826;6.214;2024-02-15T00:55:58;27.80;;;12.70;;
54937;SDS011;52756;52.826;6.214;2024-02-15T00:58:24;23.40;;;10.43;;
54937;SDS011;52756;52.826;6.214;2024-02-15T01:00:52;27.83;;;11.75;;
54937;SDS011;52756;52.826;6.214;2024-02-15T01:03:18;23.83;;;10.80;;
54937;SDS011;52756;52.826;6.214;2024-02-15T01:05:44;22.33;;;10.63;;
54937;SDS011;52756;52.826;6.214;2024-02-15T01:08:10;24.08;;;10.98;;
54937;SDS011;52756;52.826;6.214;2024-02-15T01:10:36;19.00;;;9.63;;
54937;SDS011;52756;52.826;6.214;2024-02-15T01:13:02;17.15;;;10.02;;
54937;SDS011;52756;52.826;6.214;2024-02-15T01:15:27;21.60;;;10.68;;
54937;SDS011;52756;52.826;6.214;2024-02-15T01:17:53;16.45;;;10.10;;
54937;SDS011;52756;52.826;6.214;2024-02-15T01:20:19;20.77;;;10.85;;
54937;SDS011;52756;52.826;6.214;2024-02-15T01:22:46;19.52;;;11.27;;
54937;SDS011;52756;52.826;6.214;2024-02-15T01:25:11;20.55;;;11.25;;
54937;SDS011;52756;52.826;6.214;2024-02-15T01:27:38;22.70;;;12.00;;
54937;SDS011;52756;52.826;6.214;2024-02-15T01:30:04;22.23;;;12.70;;
54937;SDS011;52756;52.826;6.214;2024-02-15T01:32:30;26.75;;;14.60;;
54937;SDS011;52756;52.826;6.214;2024-02-15T01:34:56;23.90;;;14.02;;
54937;SDS011;52756;52.826;6.214;2024-02-15T01:37:22;28.98;;;15.23;;
54937;SDS011;52756;52.826;6.214;2024-02-15T01:39:47;26.83;;;14.50;;
54937;SDS011;52756;52.826;6.214;2024-02-15T01:42:14;23.45;;;13.85;;
54937;SDS011;52756;52.826;6.214;2024-02-15T01:44:42;31.48;;;14.48;;
54937;SDS011;52756;52.826;6.214;2024-02-15T01:47:12;25.90;;;13.65;;
54937;SDS011;52756;52.826;6.214;2024-02-15T01:49:38;23.33;;;14.00;;
54937;SDS011;52756;52.826;6.214;2024-02-15T01:52:06;29.83;;;13.95;;
54937;SDS011;52756;52.826;6.214;2024-02-15T01:54:35;22.45;;;11.63;;
54937;SDS011;52756;52.826;6.214;2024-02-15T01:57:03;23.15;;;12.65;;
54937;SDS011;52756;52.826;6.214;2024-02-15T01:59:30;21.92;;;11.93;;
54937;SDS011;52756;52.826;6.214;2024-02-15T02:01:56;23.33;;;12.35;;
54937;SDS011;52756;52.826;6.214;2024-02-15T02:04:22;21.67;;;11.25;;
54937;SDS011;52756;52.826;6.214;2024-02-15T02:06:47;17.98;;;9.80;;
54937;SDS011;52756;52.826;6.214;2024-02-15T02:09:13;17.60;;;9.50;;
54937;SDS011;52756;52.826;6.214;2024-02-15T02:11:39;16.98;;;9.25;;
54937;SDS011;52756;52.826;6.214;2024-02-15T02:14:06;20.42;;;9.85;;
54937;SDS011;52756;52.826;6.214;2024-02-15T02:16:32;21.17;;;9.98;;
54937;SDS011;52756;52.826;6.214;2024-02-15T02:18:58;21.67;;;9.82;;
54937;SDS011;52756;52.826;6.214;2024-02-15T02:21:25;24.27;;;9.23;;
54937;SDS011;52756;52.826;6.214;2024-02-15T02:23:52;16.50;;;8.70;;
54937;SDS011;52756;52.826;6.214;2024-02-15T02:26:21;15.88;;;8.43;;
54937;SDS011;52756;52.826;6.214;2024-02-15T02:28:48;16.90;;;8.50;;
54937;SDS011;52756;52.826;6.214;2024-02-15T02:31:14;20.98;;;8.63;;
54937;SDS011;52756;52.826;6.214;2024-02-15T02:33:41;18.65;;;8.07;;
54937;SDS011;52756;52.826;6.214;2024-02-15T02:36:07;28.77;;;9.27;;
54937;SDS011;52756;52.826;6.214;2024-02-15T02:38:35;14.13;;;7.40;;
54937;SDS011;52756;52.826;6.214;2024-02-15T02:41:03;17.67;;;8.23;;
54937;SDS011;52756;52.826;6.214;2024-02-15T02:43:29;16.75;;;8.70;;
54937;SDS011;52756;52.826;6.214;2024-02-15T02:45:55;15.35;;;8.05;;
54937;SDS011;52756;52.826;6.214;2024-02-15T02:48:20;17.98;;;8.30;;
54937;SDS011;52756;52.826;6.214;2024-02-15T02:50:46;17.48;;;8.68;;
54937;SDS011;52756;52.826;6.214;2024-02-15T02:53:13;20.33;;;7.90;;
54937;SDS011;52756;52.826;6.214;2024-02-15T02:55:43;17.65;;;7.45;;
54937;SDS011;52756;52.826;6.214;2024-02-15T02:58:08;16.27;;;7.57;;
54937;SDS011;52756;52.826;6.214;2024-02-15T03:00:34;19.38;;;8.52;;
54937;SDS011;52756;52.826;6.214;2024-02-15T03:03:00;17.50;;;9.02;;
54937;SDS011;52756;52.826;6.214;2024-02-15T03:05:26;21.25;;;10.05;;
54937;SDS011;52756;52.826;6.214;2024-02-15T03:07:52;17.60;;;8.45;;
54937;SDS011;52756;52.826;6.214;2024-02-15T03:10:18;21.02;;;9.02;;
54937;SDS011;52756;52.826;6.214;2024-02-15T03:12:44;14.77;;;8.55;;
54937;SDS011;52756;52.826;6.214;2024-02-15T03:15:13;17.50;;;8.60;;
54937;SDS011;52756;52.826;6.214;2024-02-15T03:17:39;20.67;;;9.63;;
54937;SDS011;52756;52.826;6.214;2024-02-15T03:20:06;22.85;;;10.05;;
54937;SDS011;52756;52.826;6.214;2024-02-15T03:22:55;17.15;;;9.77;;
54937;SDS011;52756;52.826;6.214;2024-02-15T03:25:22;18.48;;;10.75;;
54937;SDS011;52756;52.826;6.214;2024-02-15T03:27:52;21.38;;;11.05;;
54937;SDS011;52756;52.826;6.214;2024-02-15T03:30:20;20.73;;;12.02;;
54937;SDS011;52756;52.826;6.214;2024-02-15T03:32:47;18.48;;;12.35;;
54937;SDS011;52756;52.826;6.214;2024-02-15T03:35:17;22.83;;;11.70;;
54937;SDS011;52756;52.826;6.214;2024-02-15T03:37:43;19.67;;;12.68;;
54937;SDS011;52756;52.826;6.214;2024-02-15T03:40:09;23.38;;;13.75;;
54937;SDS011;52756;52.826;6.214;2024-02-15T03:42:35;18.73;;;13.00;;
54937;SDS011;52756;52.826;6.214;2024-02-15T03:45:02;21.13;;;13.48;;
54937;SDS011;52756;52.826;6.214;2024-02-15T03:47:34;22.05;;;14.52;;
54937;SDS011;52756;52.826;6.214;2024-02-15T03:50:06;23.58;;;15.02;;
54937;SDS011;52756;52.826;6.214;2024-02-15T03:52:36;27.47;;;15.53;;
54937;SDS011;52756;52.826;6.214;2024-02-15T03:55:03;25.83;;;15.23;;
54937;SDS011;52756;52.826;6.214;2024-02-15T03:57:32;24.15;;;15.50;;
54937;SDS011;52756;52.826;6.214;2024-02-15T03:59:58;23.40;;;15.80;;
54937;SDS011;52756;52.826;6.214;2024-02-15T04:02:25;27.67;;;16.50;;
54937;SDS011;52756;52.826;6.214;2024-02-15T04:04:55;29.40;;;17.00;;
54937;SDS011;52756;52.826;6.214;2024-02-15T04:07:22;28.35;;;17.27;;
54937;SDS011;52756;52.826;6.214;2024-02-15T04:09:51;26.15;;;17.63;;
54937;SDS011;52756;52.826;6.214;2024-02-15T04:12:17;30.63;;;18.60;;
54937;SDS011;52756;52.826;6.214;2024-02-15T04:14:43;27.08;;;17.40;;
54937;SDS011;52756;52.826;6.214;2024-02-15T04:17:14;28.30;;;18.10;;
54937;SDS011;52756;52.826;6.214;2024-02-15T04:19:45;30.70;;;18.38;;
54937;SDS011;52756;52.826;6.214;2024-02-15T04:22:19;30.38;;;19.10;;
54937;SDS011;52756;52.826;6.214;2024-02-15T04:24:44;24.85;;;18.60;;
54937;SDS011;52756;52.826;6.214;2024-02-15T04:27:10;30.02;;;19.35;;
54937;SDS011;52756;52.826;6.214;2024-02-15T04:29:39;27.42;;;18.95;;
54937;SDS011;52756;52.826;6.214;2024-02-15T04:32:12;27.15;;;18.65;;
54937;SDS011;52756;52.826;6.214;2024-02-15T04:34:38;29.10;;;19.58;;
54937;SDS011;52756;52.826;6.214;2024-02-15T04:37:05;28.02;;;20.52;;
54937;SDS011;52756;52.826;6.214;2024-02-15T04:39:37;31.77;;;21.20;;
54937;SDS011;52756;52.826;6.214;2024-02-15T04:42:03;30.35;;;20.17;;
54937;SDS011;52756;52.826;6.214;2024-02-15T04:44:31;31.23;;;21.02;;
54937;SDS011;52756;52.826;6.214;2024-02-15T04:47:00;29.02;;;20.02;;
54937;SDS011;52756;52.826;6.214;2024-02-15T04:49:26;31.15;;;20.50;;
54937;SDS011;52756;52.826;6.214;2024-02-15T04:51:54;32.45;;;21.95;;
54937;SDS011;52756;52.826;6.214;2024-02-15T04:54:20;30.48;;;22.15;;
54937;SDS011;52756;52.826;6.214;2024-02-15T04:56:45;33.58;;;22.48;;
54937;SDS011;52756;52.826;6.214;2024-02-15T04:59:11;31.67;;;22.63;;
54937;SDS011;52756;52.826;6.214;2024-02-15T05:01:40;35.25;;;23.85;;
54937;SDS011;52756;52.826;6.214;2024-02-15T05:04:10;33.47;;;22.52;;
54937;SDS011;52756;52.826;6.214;2024-02-15T05:06:37;31.55;;;23.33;;
54937;SDS011;52756;52.826;6.214;2024-02-15T05:09:06;35.30;;;22.65;;
54937;SDS011;52756;52.826;6.214;2024-02-15T05:11:38;35.58;;;23.63;;
54937;SDS011;52756;52.826;6.214;2024-02-15T05:14:06;33.55;;;23.00;;
54937;SDS011;52756;52.826;6.214;2024-02-15T05:16:35;33.80;;;21.75;;
54937;SDS011;52756;52.826;6.214;2024-02-15T05:19:07;30.75;;;22.63;;
54937;SDS011;52756;52.826;6.214;2024-02-15T05:21:36;34.28;;;22.15;;
54937;SDS011;52756;52.826;6.214;2024-02-15T05:24:02;32.78;;;24.17;;
54937;SDS011;52756;52.826;6.214;2024-02-15T05:26:31;35.65;;;23.42;;
54937;SDS011;52756;52.826;6.214;2024-02-15T05:28:57;30.25;;;23.90;;
54937;SDS011;52756;52.826;6.214;2024-02-15T05:31:23;31.75;;;23.23;;
54937;SDS011;52756;52.826;6.214;2024-02-15T05:33:51;31.98;;;22.17;;
54937;SDS011;52756;52.826;6.214;2024-02-15T05:36:18;30.80;;;22.30;;
54937;SDS011;52756;52.826;6.214;2024-02-15T05:38:45;27.95;;;21.55;;
54937;SDS011;52756;52.826;6.214;2024-02-15T05:41:18;30.83;;;22.33;;
54937;SDS011;52756;52.826;6.214;2024-02-15T05:43:45;29.67;;;22.50;;
54937;SDS011;52756;52.826;6.214;2024-02-15T05:46:13;29.13;;;21.05;;
54937;SDS011;52756;52.826;6.214;2024-02-15T05:48:39;30.95;;;21.08;;
54937;SDS011;52756;52.826;6.214;2024-02-15T05:51:06;29.67;;;20.23;;
54937;SDS011;52756;52.826;6.214;2024-02-15T05:53:33;25.38;;;20.08;;
54937;SDS011;52756;52.826;6.214;2024-02-15T05:56:01;27.65;;;20.13;;
54937;SDS011;52756;52.826;6.214;2024-02-15T05:58:29;27.95;;;19.70;;
54937;SDS011;52756;52.826;6.214;2024-02-15T06:00:55;30.48;;;18.42;;
54937;SDS011;52756;52.826;6.214;2024-02-15T06:03:26;26.23;;;18.70;;
54937;SDS011;52756;52.826;6.214;2024-02-15T06:05:54;30.52;;;20.67;;
54937;SDS011;52756;52.826;6.214;2024-02-15T06:08:26;27.58;;;18.20;;
54937;SDS011;52756;52.826;6.214;2024-02-15T06:10:55;26.73;;;18.75;;
54937;SDS011;52756;52.826;6.214;2024-02-15T06:13:21;26.67;;;18.52;;
54937;SDS011;52756;52.826;6.214;2024-02-15T06:15:48;24.85;;;18.23;;
54937;SDS011;52756;52.826;6.214;2024-02-15T06:20:49;25.13;;;17.00;;
54937;SDS011;52756;52.826;6.214;2024-02-15T06:23:18;27.83;;;16.98;;
54937;SDS011;52756;52.826;6.214;2024-02-15T06:25:47;28.58;;;18.25;;
54937;SDS011;52756;52.826;6.214;2024-02-15T06:28:16;28.48;;;17.75;;
54937;SDS011;52756;52.826;6.214;2024-02-15T06:31:05;20.95;;;16.15;;
54937;SDS011;52756;52.826;6.214;2024-02-15T06:33:50;26.58;;;16.55;;
54937;SDS011;52756;52.826;6.214;2024-02-15T06:36:39;24.38;;;17.13;;
54937;SDS011;52756;52.826;6.214;2024-02-15T06:39:24;23.50;;;16.20;;
54937;SDS011;52756;52.826;6.214;2024-02-15T06:42:11;22.67;;;15.60;;
54937;SDS011;52756;52.826;6.214;2024-02-15T06:44:45;23.85;;;15.80;;
54937;SDS011;52756;52.826;6.214;2024-02-15T06:47:12;21.52;;;16.58;;
54937;SDS011;52756;52.826;6.214;2024-02-15T06:49:39;22.27;;;15.77;;
54937;SDS011;52756;52.826;6.214;2024-02-15T06:52:06;27.48;;;16.77;;
54937;SDS011;52756;52.826;6.214;2024-02-15T06:54:33;27.08;;;16.20;;
54937;SDS011;52756;52.826;6.214;2024-02-15T06:57:00;24.95;;;14.90;;
54937;SDS011;52756;52.826;6.214;2024-02-15T06:59:27;30.38;;;17.05;;
54937;SDS011;52756;52.826;6.214;2024-02-15T07:01:53;22.70;;;15.70;;
54937;SDS011;52756;52.826;6.214;2024-02-15T07:04:19;25.67;;;15.70;;
54937;SDS011;52756;52.826;6.214;2024-02-15T07:06:48;21.58;;;14.43;;
54937;SDS011;52756;52.826;6.214;2024-02-15T07:09:14;25.70;;;15.75;;
54937;SDS011;52756;52.826;6.214;2024-02-15T07:11:40;22.38;;;15.05;;
54937;SDS011;52756;52.826;6.214;2024-02-15T07:14:06;25.40;;;15.60;;
54937;SDS011;52756;52.826;6.214;2024-02-15T07:16:34;19.65;;;14.75;;
54937;SDS011;52756;52.826;6.214;2024-02-15T07:18:59;26.05;;;16.00;;
54937;SDS011;52756;52.826;6.214;2024-02-15T07:21:26;25.75;;;15.25;;
54937;SDS011;52756;52.826;6.214;2024-02-15T07:23:53;20.80;;;14.88;;
54937;SDS011;52756;52.826;6.214;2024-02-15T07:26:23;20.17;;;16.20;;
54937;SDS011;52756;52.826;6.214;2024-02-15T07:28:53;20.13;;;14.57;;
54937;SDS011;52756;52.826;6.214;2024-02-15T07:31:19;19.27;;;13.73;;
54937;SDS011;52756;52.826;6.214;2024-02-15T07:33:49;21.05;;;14.23;;
54937;SDS011;52756;52.826;6.214;2024-02-15T07:36:19;23.55;;;14.27;;
54937;SDS011;52756;52.826;6.214;2024-02-15T07:38:52;20.80;;;14.35;;
54937;SDS011;52756;52.826;6.214;2024-02-15T07:41:18;19.55;;;14.00;;
54937;SDS011;52756;52.826;6.214;2024-02-15T07:43:50;19.02;;;13.50;;
54937;SDS011;52756;52.826;6.214;2024-02-15T07:46:20;20.75;;;14.23;;
54937;SDS011;52756;52.826;6.214;2024-02-15T07:48:47;18.23;;;13.93;;
54937;SDS011;52756;52.826;6.214;2024-02-15T07:51:13;16.63;;;13.13;;
54937;SDS011;52756;52.826;6.214;2024-02-15T07:53:40;15.57;;;12.20;;
54937;SDS011;52756;52.826;6.214;2024-02-15T07:56:07;17.67;;;13.90;;
54937;SDS011;52756;52.826;6.214;2024-02-15T07:58:33;18.95;;;13.18;;
54937;SDS011;52756;52.826;6.214;2024-02-15T08:00:59;21.35;;;14.05;;
54937;SDS011;52756;52.826;6.214;2024-02-15T08:03:25;22.58;;;13.75;;
54937;SDS011;52756;52.826;6.214;2024-02-15T08:05:54;18.67;;;13.40;;
54937;SDS011;52756;52.826;6.214;2024-02-15T08:08:20;19.70;;;13.27;;
54937;SDS011;52756;52.826;6.214;2024-02-15T08:10:46;19.50;;;13.98;;
54937;SDS011;52756;52.826;6.214;2024-02-15T08:13:13;20.00;;;14.48;;
54937;SDS011;52756;52.826;6.214;2024-02-15T08:15:40;18.40;;;13.32;;
54937;SDS011;52756;52.826;6.214;2024-02-15T08:18:06;17.10;;;13.20;;
54937;SDS011;52756;52.826;6.214;2024-02-15T08:20:34;17.00;;;13.15;;
54937;SDS011;52756;52.826;6.214;2024-02-15T08:22:59;18.40;;;13.63;;
54937;SDS011;52756;52.826;6.214;2024-02-15T08:25:25;19.58;;;13.43;;
54937;SDS011;52756;52.826;6.214;2024-02-15T08:27:51;20.65;;;14.93;;
54937;SDS011;52756;52.826;6.214;2024-02-15T08:30:16;19.55;;;13.40;;
54937;SDS011;52756;52.826;6.214;2024-02-15T08:32:42;19.35;;;13.32;;
54937;SDS011;52756;52.826;6.214;2024-02-15T08:35:10;18.63;;;13.45;;
54937;SDS011;52756;52.826;6.214;2024-02-15T08:37:37;15.93;;;12.80;;
54937;SDS011;52756;52.826;6.214;2024-02-15T08:40:08;16.75;;;14.20;;
54937;SDS011;52756;52.826;6.214;2024-02-15T08:42:41;15.95;;;13.38;;
54937;SDS011;52756;52.826;6.214;2024-02-15T08:45:07;16.95;;;12.35;;
54937;SDS011;52756;52.826;6.214;2024-02-15T08:47:40;15.50;;;12.63;;
54937;SDS011;52756;52.826;6.214;2024-02-15T08:50:07;15.75;;;13.02;;
54937;SDS011;52756;52.826;6.214;2024-02-15T08:52:37;17.63;;;12.60;;
54937;SDS011;52756;52.826;6.214;2024-02-15T08:55:07;14.55;;;12.57;;
54937;SDS011;52756;52.826;6.214;2024-02-15T08:57:34;14.48;;;12.35;;
54937;SDS011;52756;52.826;6.214;2024-02-15T09:00:01;14.23;;;12.13;;
54937;SDS011;52756;52.826;6.214;2024-02-15T09:02:38;13.50;;;11.38;;
54937;SDS011;52756;52.826;6.214;2024-02-15T09:05:08;14.80;;;11.60;;
54937;SDS011;52756;52.826;6.214;2024-02-15T09:07:34;13.60;;;11.68;;
54937;SDS011;52756;52.826;6.214;2024-02-15T09:10:01;13.05;;;11.43;;
54937;SDS011;52756;52.826;6.214;2024-02-15T09:12:28;14.43;;;11.60;;
54937;SDS011;52756;52.826;6.214;2024-02-15T09:14:53;17.00;;;11.43;;
54937;SDS011;52756;52.826;6.214;2024-02-15T09:17:19;14.35;;;11.77;;
54937;SDS011;52756;52.826;6.214;2024-02-15T09:19:46;14.02;;;11.23;;
54937;SDS011;52756;52.826;6.214;2024-02-15T09:22:14;13.35;;;12.02;;
54937;SDS011;52756;52.826;6.214;2024-02-15T09:24:40;12.95;;;10.43;;
54937;SDS011;52756;52.826;6.214;2024-02-15T09:27:07;13.75;;;10.45;;
54937;SDS011;52756;52.826;6.214;2024-02-15T09:29:33;11.43;;;9.75;;
54937;SDS011;52756;52.826;6.214;2024-02-15T09:32:00;13.00;;;9.88;;
54937;SDS011;52756;52.826;6.214;2024-02-15T09:34:28;13.55;;;10.55;;
54937;SDS011;52756;52.826;6.214;2024-02-15T09:36:54;11.45;;;9.20;;
54937;SDS011;52756;52.826;6.214;2024-02-15T09:39:21;10.18;;;7.97;;
54937;SDS011;52756;52.826;6.214;2024-02-15T09:41:48;10.93;;;8.98;;
54937;SDS011;52756;52.826;6.214;2024-02-15T09:44:20;9.73;;;8.68;;
54937;SDS011;52756;52.826;6.214;2024-02-15T09:46:47;9.82;;;8.18;;
54937;SDS011;52756;52.826;6.214;2024-02-15T09:49:37;10.32;;;8.75;;
54937;SDS011;52756;52.826;6.214;2024-02-15T09:52:07;10.80;;;8.70;;
54937;SDS011;52756;52.826;6.214;2024-02-15T09:54:40;10.43;;;7.45;;
54937;SDS011;52756;52.826;6.214;2024-02-15T09:57:09;8.38;;;6.60;;
54937;SDS011;52756;52.826;6.214;2024-02-15T09:59:37;8.13;;;7.20;;
54937;SDS011;52756;52.826;6.214;2024-02-15T10:02:04;9.43;;;7.13;;
54937;SDS011;52756;52.826;6.214;2024-02-15T10:04:34;8.68;;;7.05;;
54937;SDS011;52756;52.826;6.214;2024-02-15T10:07:00;7.65;;;6.85;;
54937;SDS011;52756;52.826;6.214;2024-02-15T10:09:26;8.40;;;7.18;;
54937;SDS011;52756;52.826;6.214;2024-02-15T10:11:54;9.45;;;7.95;;
54937;SDS011;52756;52.826;6.214;2024-02-15T10:14:21;9.55;;;8.55;;
54937;SDS011;52756;52.826;6.214;2024-02-15T10:16:49;8.70;;;7.80;;
54937;SDS011;52756;52.826;6.214;2024-02-15T10:19:15;7.70;;;6.90;;
54937;SDS011;52756;52.826;6.214;2024-02-15T10:21:42;7.30;;;6.60;;
54937;SDS011;52756;52.826;6.214;2024-02-15T10:24:08;8.50;;;6.43;;
54937;SDS011;52756;52.826;6.214;2024-02-15T10:26:34;7.63;;;6.80;;
54937;SDS011;52756;52.826;6.214;2024-02-15T10:29:04;7.38;;;6.38;;
54937;SDS011;52756;52.826;6.214;2024-02-15T10:31:34;8.52;;;6.53;;
54937;SDS011;52756;52.826;6.214;2024-02-15T10:34:04;6.88;;;6.18;;
54937;SDS011;52756;52.826;6.214;2024-02-15T10:36:32;6.90;;;5.97;;
54937;SDS011;52756;52.826;6.214;2024-02-15T10:39:15;5.97;;;5.38;;
54937;SDS011;52756;52.826;6.214;2024-02-15T10:44:13;6.07;;;5.47;;
54937;SDS011;52756;52.826;6.214;2024-02-15T10:46:43;7.75;;;5.55;;
54937;SDS011;52756;52.826;6.214;2024-02-15T10:49:10;5.18;;;4.63;;
54937;SDS011;52756;52.826;6.214;2024-02-15T10:51:36;5.47;;;4.45;;
54937;SDS011;52756;52.826;6.214;2024-02-15T10:54:08;5.00;;;4.57;;
54937;SDS011;52756;52.826;6.214;2024-02-15T10:56:43;4.22;;;3.80;;
54937;SDS011;52756;52.826;6.214;2024-02-15T10:59:18;4.57;;;4.13;;
54937;SDS011;52756;52.826;6.214;2024-02-15T11:01:47;5.50;;;3.83;;
54937;SDS011;52756;52.826;6.214;2024-02-15T11:04:20;4.72;;;4.18;;
54937;SDS011;52756;52.826;6.214;2024-02-15T11:06:47;4.18;;;3.78;;
54937;SDS011;52756;52.826;6.214;2024-02-15T11:09:15;4.82;;;3.60;;
54937;SDS011;52756;52.826;6.214;2024-02-15T11:11:42;4.28;;;3.15;;
54937;SDS011;52756;52.826;6.214;2024-02-15T11:14:25;4.43;;;3.58;;
54937;SDS011;52756;52.826;6.214;2024-02-15T11:16:52;3.90;;;3.03;;
54937;SDS011;52756;52.826;6.214;2024-02-15T11:22:07;4.18;;;3.30;;
54937;SDS011;52756;52.826;6.214;2024-02-15T11:24:35;3.40;;;3.10;;
54937;SDS011;52756;52.826;6.214;2024-02-15T11:27:02;3.85;;;2.92;;
54937;SDS011;52756;52.826;6.214;2024-02-15T11:35:08;3.83;;;3.28;;
54937;SDS011;52756;52.826;6.214;2024-02-15T11:40:14;3.92;;;3.30;;
54937;SDS011;52756;52.826;6.214;2024-02-15T11:42:42;5.15;;;4.43;;
54937;SDS011;52756;52.826;6.214;2024-02-15T11:45:08;4.88;;;3.90;;
54937;SDS011;52756;52.826;6.214;2024-02-15T11:47:37;7.32;;;4.93;;
54937;SDS011;52756;52.826;6.214;2024-02-15T11:50:07;8.30;;;5.78;;
54937;SDS011;52756;52.826;6.214;2024-02-15T11:53:01;6.65;;;5.80;;
54937;SDS011;52756;52.826;6.214;2024-02-15T11:55:30;7.85;;;6.18;;
54937;SDS011;52756;52.826;6.214;2024-02-15T11:58:00;8.25;;;6.72;;
54937;SDS011;52756;52.826;6.214;2024-02-15T12:00:41;7.53;;;6.40;;
54937;SDS011;52756;52.826;6.214;2024-02-15T12:03:26;9.48;;;6.30;;
54937;SDS011;52756;52.826;6.214;2024-02-15T12:06:10;9.18;;;6.65;;
54937;SDS011;52756;52.826;6.214;2024-02-15T12:08:54;7.95;;;6.80;;
54937;SDS011;52756;52.826;6.214;2024-02-15T12:11:38;8.13;;;7.00;;
54937;SDS011;52756;52.826;6.214;2024-02-15T12:14:23;8.75;;;6.80;;
54937;SDS011;52756;52.826;6.214;2024-02-15T12:17:08;9.32;;;7.13;;
54937;SDS011;52756;52.826;6.214;2024-02-15T12:19:56;10.43;;;7.63;;
54937;SDS011;52756;52.826;6.214;2024-02-15T12:22:35;9.02;;;7.10;;
54937;SDS011;52756;52.826;6.214;2024-02-15T12:25:05;12.40;;;8.35;;
54937;SDS011;52756;52.826;6.214;2024-02-15T12:27:41;10.00;;;6.85;;
54937;SDS011;52756;52.826;6.214;2024-02-15T12:30:12;11.73;;;7.15;;
54937;SDS011;52756;52.826;6.214;2024-02-15T12:32:40;9.02;;;7.00;;
54937;SDS011;52756;52.826;6.214;2024-02-15T12:35:09;9.88;;;7.25;;
54937;SDS011;52756;52.826;6.214;2024-02-15T12:37:40;9.85;;;7.47;;
54937;SDS011;52756;52.826;6.214;2024-02-15T12:40:13;10.52;;;8.10;;
54937;SDS011;52756;52.826;6.214;2024-02-15T12:42:46;11.55;;;8.27;;
54937;SDS011;52756;52.826;6.214;2024-02-15T12:45:15;11.65;;;7.68;;
54937;SDS011;52756;52.826;6.214;2024-02-15T12:47:45;9.53;;;7.10;;
54937;SDS011;52756;52.826;6.214;2024-02-15T12:50:18;9.27;;;7.60;;
54937;SDS011;52756;52.826;6.214;2024-02-15T12:52:53;9.73;;;8.07;;
54937;SDS011;52756;52.826;6.214;2024-02-15T12:55:28;11.30;;;7.90;;
54937;SDS011;52756;52.826;6.214;2024-02-15T12:57:59;11.77;;;7.95;;
54937;SDS011;52756;52.826;6.214;2024-02-15T13:00:29;12.25;;;8.43;;
54937;SDS011;52756;52.826;6.214;2024-02-15T13:02:59;7.85;;;7.03;;
54937;SDS011;52756;52.826;6.214;2024-02-15T13:05:28;13.57;;;7.95;;
54937;SDS011;52756;52.826;6.214;2024-02-15T13:07:55;11.93;;;7.78;;
54937;SDS011;52756;52.826;6.214;2024-02-15T13:10:22;14.43;;;8.68;;
54937;SDS011;52756;52.826;6.214;2024-02-15T13:12:48;10.40;;;7.97;;
54937;SDS011;52756;52.826;6.214;2024-02-15T13:15:16;11.27;;;7.93;;
54937;SDS011;52756;52.826;6.214;2024-02-15T13:17:50;12.38;;;8.13;;
54937;SDS011;52756;52.826;6.214;2024-02-15T13:20:19;13.50;;;8.45;;
54937;SDS011;52756;52.826;6.214;2024-02-15T13:23:01;13.15;;;7.05;;
54937;SDS011;52756;52.826;6.214;2024-02-15T13:25:33;13.93;;;8.15;;
54937;SDS011;52756;52.826;6.214;2024-02-15T13:27:59;10.90;;;7.28;;
54937;SDS011;52756;52.826;6.214;2024-02-15T13:30:24;10.45;;;7.75;;
54937;SDS011;52756;52.826;6.214;2024-02-15T13:32:52;13.02;;;8.07;;
54937;SDS011;52756;52.826;6.214;2024-02-15T13:35:21;11.55;;;7.60;;
54937;SDS011;52756;52.826;6.214;2024-02-15T13:37:55;10.52;;;7.30;;
54937;SDS011;52756;52.826;6.214;2024-02-15T13:40:23;14.50;;;8.40;;
54937;SDS011;52756;52.826;6.214;2024-02-15T13:42:56;13.93;;;7.88;;
54937;SDS011;52756;52.826;6.214;2024-02-15T13:45:35;14.95;;;8.15;;
54937;SDS011;52756;52.826;6.214;2024-02-15T13:48:04;12.32;;;8.00;;
54937;SDS011;52756;52.826;6.214;2024-02-15T13:50:32;13.00;;;8.60;;
54937;SDS011;52756;52.826;6.214;2024-02-15T13:52:58;10.45;;;7.18;;
54937;SDS011;52756;52.826;6.214;2024-02-15T13:55:23;11.98;;;8.35;;
54937;SDS011;52756;52.826;6.214;2024-02-15T13:57:53;10.32;;;7.80;;
54937;SDS011;52756;52.826;6.214;2024-02-15T14:00:21;13.40;;;8.48;;
54937;SDS011;52756;52.826;6.214;2024-02-15T14:05:18;14.00;;;9.02;;
54937;SDS011;52756;52.826;6.214;2024-02-15T14:07:52;13.27;;;8.50;;
54937;SDS011;52756;52.826;6.214;2024-02-15T14:10:23;14.77;;;8.85;;
54937;SDS011;52756;52.826;6.214;2024-02-15T14:12:50;18.27;;;10.27;;
54937;SDS011;52756;52.826;6.214;2024-02-15T14:15:34;13.68;;;8.23;;
54937;SDS011;52756;52.826;6.214;2024-02-15T14:18:06;15.68;;;9.30;;
54937;SDS011;52756;52.826;6.214;2024-02-15T14:20:38;15.77;;;9.48;;
54937;SDS011;52756;52.826;6.214;2024-02-15T14:23:04;14.85;;;9.40;;
54937;SDS011;52756;52.826;6.214;2024-02-15T14:25:31;17.92;;;9.82;;
54937;SDS011;52756;52.826;6.214;2024-02-15T14:27:57;19.17;;;10.35;;
54937;SDS011;52756;52.826;6.214;2024-02-15T14:30:27;14.20;;;10.05;;
54937;SDS011;52756;52.826;6.214;2024-02-15T14:33:11;14.80;;;10.07;;
54937;SDS011;52756;52.826;6.214;2024-02-15T14:35:40;11.43;;;9.20;;
54937;SDS011;52756;52.826;6.214;2024-02-15T14:38:10;15.98;;;9.80;;
54937;SDS011;52756;52.826;6.214;2024-02-15T14:40:41;21.20;;;10.55;;
54937;SDS011;52756;52.826;6.214;2024-02-15T14:43:09;17.08;;;10.02;;
54937;SDS011;52756;52.826;6.214;2024-02-15T14:45:37;17.92;;;10.57;;
54937;SDS011;52756;52.826;6.214;2024-02-15T14:48:06;16.60;;;9.65;;
54937;SDS011;52756;52.826;6.214;2024-02-15T14:50:34;15.23;;;9.40;;
54937;SDS011;52756;52.826;6.214;2024-02-15T14:53:00;13.85;;;9.82;;
54937;SDS011;52756;52.826;6.214;2024-02-15T14:55:26;13.02;;;9.77;;